Observation data for Saint Lawrence on 03/10/2018      Previous  Date  Next       Current Mesonet Observations  Soil Data  Daily Summary Page  Observations in Plain Language
KST1 100600Z 20007KT 15/06 A2983 RMK A01 T01460056  RH  056%=      5-min Rain = 0
KST1 100605Z 20007KT 14/06 A2983 RMK A01 T01430056  RH  056%=      5-min Rain = 0
KST1 100610Z 20008KT 14/06 A2983 RMK A01 T01410055  RH  057%=      5-min Rain = 0
KST1 100615Z 20008KT 14/05 A2983 RMK A01 T01390054  RH  057%=      5-min Rain = 0
KST1 100620Z 21007KT 14/05 A2983 RMK A01 T01370053  RH  058%=      5-min Rain = 0
KST1 100625Z 20007KT 14/05 A2983 RMK A01 T01360054  RH  058%=      5-min Rain = 0
KST1 100630Z 20006KT 14/05 A2983 RMK A01 T01360054  RH  059%=      5-min Rain = 0
KST1 100635Z 19006KT 14/06 A2983 RMK A01 T01350055  RH  059%=      5-min Rain = 0
KST1 100640Z 19006KT 13/05 A2983 RMK A01 T01300050  RH  059%=      5-min Rain = 0
KST1 100645Z 19005KT 13/05 A2983 RMK A01 T01260050  RH  060%=      5-min Rain = 0
KST1 100650Z 19005KT 13/05 A2983 RMK A01 T01260050  RH  061%=      5-min Rain = 0
KST1 100655Z 20005KT 13/05 A2983 RMK A01 T01270051  RH  061%=      5-min Rain = 0
KST1 100700Z 19005KT 12/05 A2983 RMK A01 T01240049  RH  061%=      5-min Rain = 0
KST1 100705Z 19006KT 12/04 A2983 RMK A01 T01190044  RH  061%=      5-min Rain = 0
KST1 100710Z 19007KT 11/04 A2983 RMK A01 T01100039  RH  062%=      5-min Rain = 0
KST1 100715Z 19007KT 12/05 A2983 RMK A01 T01160046  RH  063%=      5-min Rain = 0
KST1 100720Z 18007KT 11/04 A2983 RMK A01 T01130044  RH  063%=      5-min Rain = 0
KST1 100725Z 18006KT 11/04 A2983 RMK A01 T01120044  RH  064%=      5-min Rain = 0
KST1 100730Z 17005KT 11/05 A2983 RMK A01 T01120046  RH  065%=      5-min Rain = 0
KST1 100735Z 16005KT 11/04 A2983 RMK A01 T01070041  RH  064%=      5-min Rain = 0
KST1 100740Z 13004KT 10/04 A2983 RMK A01 T01010035  RH  064%=      5-min Rain = 0
KST1 100745Z 11004KT 10/04 A2983 RMK A01 T01020038  RH  065%=      5-min Rain = 0
KST1 100750Z 09005KT 09/02 A2983 RMK A01 T00920023  RH  063%=      5-min Rain = 0
KST1 100755Z 09006KT 09/03 A2983 RMK A01 T00910028  RH  066%=      5-min Rain = 0
KST1 100800Z 10005KT 09/03 A2983 RMK A01 T00940034  RH  067%=      5-min Rain = 0
KST1 100805Z 10006KT 10/04 A2983 RMK A01 T00980040  RH  068%=      5-min Rain = 0
KST1 100810Z 11006KT 10/05 A2983 RMK A01 T01030049  RH  070%=      5-min Rain = 0
KST1 100815Z 12006KT 10/05 A2983 RMK A01 T01000045  RH  070%=      5-min Rain = 0
KST1 100820Z 12006KT 10/04 A2983 RMK A01 T00950043  RH  071%=      5-min Rain = 0
KST1 100825Z 12006KT 09/04 A2982 RMK A01 T00930041  RH  071%=      5-min Rain = 0
KST1 100830Z 13007KT 09/04 A2982 RMK A01 T00910041  RH  072%=      5-min Rain = 0
KST1 100835Z 14007KT 09/04 A2982 RMK A01 T00910044  RH  073%=      5-min Rain = 0
KST1 100840Z 15008KT 09/05 A2982 RMK A01 T00940048  RH  074%=      5-min Rain = 0
KST1 100845Z 15008KT 09/05 A2982 RMK A01 T00930048  RH  075%=      5-min Rain = 0
KST1 100850Z 16008KT 10/06 A2981 RMK A01 T00980057  RH  077%=      5-min Rain = 0
KST1 100855Z 16007KT 10/06 A2981 RMK A01 T01030064  RH  078%=      5-min Rain = 0
KST1 100900Z 16007KT 10/06 A2981 RMK A01 T01010061  RH  077%=      5-min Rain = 0
KST1 100905Z 16006KT 10/06 A298 RMK A01 T00960056  RH  077%=      5-min Rain = 0
KST1 100910Z 16006KT 09/05 A298 RMK A01 T00880046  RH  076%=      5-min Rain = 0
KST1 100915Z 16006KT 09/05 A298 RMK A01 T00860048  RH  078%=      5-min Rain = 0
KST1 100920Z 16006KT 09/05 A298 RMK A01 T00870051  RH  080%=      5-min Rain = 0
KST1 100925Z 17005KT 09/06 A298 RMK A01 T00890056  RH  081%=      5-min Rain = 0
KST1 100930Z 18006KT 09/06 A298 RMK A01 T00920061  RH  082%=      5-min Rain = 0
KST1 100935Z 19006KT 10/07 A298 RMK A01 T00960066  RH  083%=      5-min Rain = 0
KST1 100940Z 19006KT 09/06 A298 RMK A01 T00940064  RH  083%=      5-min Rain = 0
KST1 100945Z 19006KT 10/07 A298 RMK A01 T00950068  RH  084%=      5-min Rain = 0
KST1 100950Z 20006KT 10/08 A2979 RMK A01 T01040081  RH  087%=      5-min Rain = 0
KST1 100955Z 20006KT 11/08 A298 RMK A01 T01060082  RH  087%=      5-min Rain = 0
KST1 101000Z 21007KT 10/07 A298 RMK A01 T00980072  RH  085%=      5-min Rain = 0
KST1 101005Z 21007KT 10/08 A298 RMK A01 T00980077  RH  088%=      5-min Rain = 0
KST1 101010Z 21007KT 10/08 A298 RMK A01 T00970077  RH  089%=      5-min Rain = 0
KST1 101015Z 21008KT 09/07 A298 RMK A01 T00930073  RH  089%=      5-min Rain = 0
KST1 101020Z 20008KT 09/08 A298 RMK A01 T00940075  RH  089%=      5-min Rain = 0
KST1 101025Z 20007KT 10/08 A298 RMK A01 T00990082  RH  090%=      5-min Rain = 0
KST1 101030Z 20007KT 10/09 A298 RMK A01 T01040086  RH  090%=      5-min Rain = 0
KST1 101035Z 19006KT 10/08 A298 RMK A01 T00960076  RH  089%=      5-min Rain = 0
KST1 101040Z 18007KT 09/07 A298 RMK A01 T00880068  RH  089%=      5-min Rain = 0
KST1 101045Z 19007KT 09/06 A298 RMK A01 T00850064  RH  088%=      5-min Rain = 0
KST1 101050Z 19007KT 08/07 A298 RMK A01 T00840065  RH  089%=      5-min Rain = 0
KST1 101055Z 19007KT 09/07 A2981 RMK A01 T00890073  RH  091%=      5-min Rain = 0
KST1 101100Z 20006KT 10/08 A2981 RMK A01 T00960081  RH  092%=      5-min Rain = 0
KST1 101105Z 20007KT 10/08 A2981 RMK A01 T00990084  RH  092%=      5-min Rain = 0
KST1 101110Z 20008KT 10/09 A2981 RMK A01 T01010087  RH  092%=      5-min Rain = 0
KST1 101115Z 21009KT 10/09 A2981 RMK A01 T01030088  RH  092%=      5-min Rain = 0
KST1 101120Z 21009KT 10/09 A2982 RMK A01 T01030087  RH  091%=      5-min Rain = 0
KST1 101125Z 22009KT 10/09 A2982 RMK A01 T01020086  RH  091%=      5-min Rain = 0
KST1 101130Z 21010KT 11/09 A2982 RMK A01 T01050090  RH  092%=      5-min Rain = 0
KST1 101135Z 22009KT 11/09 A2982 RMK A01 T01100094  RH  092%=      5-min Rain = 0
KST1 101140Z 22008KT 11/09 A2983 RMK A01 T01110094  RH  091%=      5-min Rain = 0
KST1 101145Z 22007KT 11/09 A2983 RMK A01 T01110094  RH  091%=      5-min Rain = 0
KST1 101150Z 23005KT 11/10 A2983 RMK A01 T01130096  RH  091%=      5-min Rain = 0
KST1 101155Z 23005KT 11/10 A2984 RMK A01 T01130097  RH  091%=      5-min Rain = 0
KST1 101200Z 24005KT 12/10 A2984 RMK A01 T01160099  RH  090%=      5-min Rain = 0
KST1 101205Z 24006KT 12/10 A2984 RMK A01 T01150096  RH  090%=      5-min Rain = 0
KST1 101210Z 24006KT 12/10 A2984 RMK A01 T01150096  RH  089%=      5-min Rain = 0
KST1 101215Z 23006KT 11/09 A2984 RMK A01 T01140094  RH  089%=      5-min Rain = 0
KST1 101220Z 23006KT 11/09 A2984 RMK A01 T01140094  RH  089%=      5-min Rain = 0
KST1 101225Z 23007KT 12/09 A2984 RMK A01 T01150094  RH  089%=      5-min Rain = 0
KST1 101230Z 23008KT 11/09 A2984 RMK A01 T01140093  RH  089%=      5-min Rain = 0
KST1 101235Z 22009KT 11/09 A2984 RMK A01 T01130093  RH  089%=      5-min Rain = 0
KST1 101240Z 22011KT 11/09 A2984 RMK A01 T01130094  RH  089%=      5-min Rain = 0
KST1 101245Z 22010KT 11/09 A2984 RMK A01 T01120092  RH  089%=      5-min Rain = 0
KST1 101250Z 22010KT 11/09 A2984 RMK A01 T01100091  RH  090%=      5-min Rain = 0
KST1 101255Z 21009KT 11/09 A2984 RMK A01 T01080091  RH  090%=      5-min Rain = 0
KST1 101300Z 22008KT 11/09 A2984 RMK A01 T01060089  RH  091%=      5-min Rain = 0
KST1 101305Z 21009KT 10/09 A2983 RMK A01 T01040087  RH  091%=      5-min Rain = 0
KST1 101310Z 21009KT 10/09 A2983 RMK A01 T01030087  RH  091%=      5-min Rain = 0
KST1 101315Z 21010KT 10/09 A2983 RMK A01 T01040089  RH  092%=      5-min Rain = 0
KST1 101320Z 21009KT 11/09 A2983 RMK A01 T01060089  RH  091%=      5-min Rain = 0
KST1 101325Z 21009KT 11/09 A2983 RMK A01 T01060089  RH  091%=      5-min Rain = 0
KST1 101330Z 21009KT 11/09 A2983 RMK A01 T01060089  RH  091%=      5-min Rain = 0
KST1 101335Z 21009KT 11/09 A2983 RMK A01 T01090091  RH  091%=      5-min Rain = 0
KST1 101340Z 21008KT 11/09 A2983 RMK A01 T01110093  RH  090%=      5-min Rain = 0
KST1 101345Z 21008KT 11/09 A2984 RMK A01 T01110092  RH  090%=      5-min Rain = 0
KST1 101350Z 21008KT 11/09 A2984 RMK A01 T01100091  RH  090%=      5-min Rain = 0
KST1 101355Z 22009KT 11/09 A2985 RMK A01 T01080091  RH  090%=      5-min Rain = 0
KST1 101400Z 21010KT 11/09 A2985 RMK A01 T01060089  RH  091%=      5-min Rain = 0
KST1 101405Z 22009KT 11/09 A2985 RMK A01 T01060090  RH  091%=      5-min Rain = 0
KST1 101410Z 22010KT 11/09 A2986 RMK A01 T01060089  RH  091%=      5-min Rain = 0
KST1 101415Z 21010KT 11/09 A2986 RMK A01 T01070090  RH  091%=      5-min Rain = 0
KST1 101420Z 21010KT 11/09 A2986 RMK A01 T01100092  RH  090%=      5-min Rain = 0
KST1 101425Z 21010KT 12/09 A2986 RMK A01 T01150094  RH  088%=      5-min Rain = 0
KST1 101430Z 21010KT 12/09 A2986 RMK A01 T01160092  RH  087%=      5-min Rain = 0
KST1 101435Z 21010KT 12/09 A2986 RMK A01 T01160091  RH  086%=      5-min Rain = 0
KST1 101440Z 22011KT 12/09 A2986 RMK A01 T01220094  RH  084%=      5-min Rain = 0
KST1 101445Z 22012KT 13/10 A2986 RMK A01 T01280095  RH  082%=      5-min Rain = 0
KST1 101450Z 22012KT 14/10 A2987 RMK A01 T01360097  RH  078%=      5-min Rain = 0
KST1 101455Z 22012KT 14/10 A2987 RMK A01 T01420095  RH  074%=      5-min Rain = 0
KST1 101500Z 23012KT 15/09 A2987 RMK A01 T01480089  RH  069%=      5-min Rain = 0
KST1 101505Z 23012KT 16/08 A2986 RMK A01 T01580082  RH  062%=      5-min Rain = 0
KST1 101510Z 23013KT 16/07 A2986 RMK A01 T01630073  RH  056%=      5-min Rain = 0
KST1 101515Z 23012KT 17/07 A2986 RMK A01 T01670074  RH  055%=      5-min Rain = 0
KST1 101520Z 23012KT 17/07 A2986 RMK A01 T01730069  RH  051%=      5-min Rain = 0
KST1 101525Z 23013KT 17/07 A2986 RMK A01 T01740065  RH  049%=      5-min Rain = 0
KST1 101530Z 24013KT 17/06 A2986 RMK A01 T01740058  RH  047%=      5-min Rain = 0
KST1 101535Z 24012KT 18/06 A2986 RMK A01 T01760056  RH  046%=      5-min Rain = 0
KST1 101540Z 23012KT 18/05 A2986 RMK A01 T01780052  RH  044%=      5-min Rain = 0
KST1 101545Z 23012KT 19/05 A2986 RMK A01 T01880048  RH  040%=      5-min Rain = 0
KST1 101550Z 23012KT 20/04 A2986 RMK A01 T01950040  RH  037%=      5-min Rain = 0
KST1 101555Z 23014KT 20/02 A2986 RMK A01 T01980017  RH  030%=      5-min Rain = 0
KST1 101600Z 24014KT 20/01 A2986 RMK A01 T02020011  RH  028%=      5-min Rain = 0
KST1 101605Z 24014KT 21/00 A2986 RMK A01 T02070003  RH  026%=      5-min Rain = 0
KST1 101610Z 25013KT 21/M01 A2986 RMK A01 T02141007  RH  023%=      5-min Rain = 0
KST1 101615Z 25016KT 22/M02 A2986 RMK A01 T02201017  RH  021%=      5-min Rain = 0
KST1 101620Z 26016G21KT 22/M03 A2987 RMK A01 T02241027  RH  019%=      5-min Rain = 0
KST1 101625Z 26017G24KT 23/M04 A2986 RMK A01 T02271037  RH  017%=      5-min Rain = 0
KST1 101630Z 26019KT 23/M05 A2986 RMK A01 T02301045  RH  016%=      5-min Rain = 0
KST1 101635Z 27018G23KT 23/M05 A2987 RMK A01 T02321053  RH  015%=      5-min Rain = 0
KST1 101640Z 27017G22KT 24/M06 A2986 RMK A01 T02391056  RH  014%=      5-min Rain = 0
KST1 101645Z 27018G24KT 24/M06 A2987 RMK A01 T02381062  RH  013%=      5-min Rain = 0
KST1 101650Z 28017G22KT 24/M06 A2987 RMK A01 T02421061  RH  013%=      5-min Rain = 0
KST1 101655Z 28019G24KT 24/M07 A2987 RMK A01 T02431070  RH  012%=      5-min Rain = 0
KST1 101700Z 28018KT 24/M07 A2987 RMK A01 T02441070  RH  012%=      5-min Rain = 0
KST1 101705Z 28018G23KT 25/M07 A2987 RMK A01 T02481074  RH  011%=      5-min Rain = 0
KST1 101710Z 28018G23KT 25/M08 A2987 RMK A01 T02491083  RH  011%=      5-min Rain = 0
KST1 101715Z 29020KT 25/M09 A2987 RMK A01 T02511088  RH  010%=      5-min Rain = 0
KST1 101720Z 30019KT 25/M10 A2987 RMK A01 T02541100  RH  009%=      5-min Rain = 0
KST1 101725Z 30017KT 25/M10 A2987 RMK A01 T02531102  RH  009%=      5-min Rain = 0
KST1 101730Z 29015G20KT 26/M09 A2986 RMK A01 T02571093  RH  009%=      5-min Rain = 0
KST1 101735Z 29016KT 26/M09 A2986 RMK A01 T02591094  RH  009%=      5-min Rain = 0
KST1 101740Z 30016G21KT 26/M10 A2986 RMK A01 T02601096  RH  009%=      5-min Rain = 0
KST1 101745Z 30015G20KT 26/M10 A2986 RMK A01 T02631095  RH  009%=      5-min Rain = 0
KST1 101750Z 31016G21KT 26/M10 A2986 RMK A01 T02631104  RH  008%=      5-min Rain = 0
KST1 101755Z 29014G22KT 26/M11 A2986 RMK A01 T02641105  RH  008%=      5-min Rain = 0
KST1 101800Z 30015G21KT 27/M11 A2986 RMK A01 T02721110  RH  007%=      5-min Rain = 0
KST1 101805Z 30015KT 27/M12 A2985 RMK A01 T02691115  RH  007%=      5-min Rain = 0
KST1 101810Z 30015KT 27/M12 A2985 RMK A01 T02681117  RH  007%=      5-min Rain = 0
KST1 101815Z 30015G20KT 27/M12 A2985 RMK A01 T02701121  RH  007%=      5-min Rain = 0
KST1 101820Z 31014G19KT 27/M13 A2985 RMK A01 T02691126  RH  007%=      5-min Rain = 0
KST1 101825Z 29016G22KT 27/M13 A2984 RMK A01 T02711126  RH  007%=      5-min Rain = 0
KST1 101830Z 30014G19KT 27/M13 A2984 RMK A01 T02701128  RH  006%=      5-min Rain = 0
KST1 101835Z 31016KT 27/M13 A2984 RMK A01 T02721129  RH  006%=      5-min Rain = 0
KST1 101840Z 30014KT 27/M13 A2984 RMK A01 T02741126  RH  006%=      5-min Rain = 0
KST1 101845Z 29015G21KT 28/M13 A2983 RMK A01 T02751130  RH  006%=      5-min Rain = 0
KST1 101850Z 30015G20KT 28/M14 A2983 RMK A01 T02751135  RH  006%=      5-min Rain = 0
KST1 101855Z 29013G21KT 28/M13 A2983 RMK A01 T02761130  RH  006%=      5-min Rain = 0
KST1 101900Z 29015G20KT 28/M13 A2982 RMK A01 T02781130  RH  006%=      5-min Rain = 0
KST1 101905Z 29014KT 28/M13 A2982 RMK A01 T02781131  RH  006%=      5-min Rain = 0
KST1 101910Z 30014G19KT 28/M13 A2982 RMK A01 T02771132  RH  006%=      5-min Rain = 0
KST1 101915Z 30013G19KT 27/M13 A2982 RMK A01 T02741134  RH  006%=      5-min Rain = 0
KST1 101920Z 29013KT 28/M13 A2981 RMK A01 T02771130  RH  006%=      5-min Rain = 0
KST1 101925Z 28013KT 28/M13 A2981 RMK A01 T02811128  RH  006%=      5-min Rain = 0
KST1 101930Z 28014KT 28/M13 A2981 RMK A01 T02821130  RH  006%=      5-min Rain = 0
KST1 101935Z 28011KT 28/M13 A2981 RMK A01 T02801131  RH  006%=      5-min Rain = 0
KST1 101940Z 29012G18KT 29/M13 A298 RMK A01 T02851127  RH  006%=      5-min Rain = 0
KST1 101945Z 30010G19KT 28/M13 A298 RMK A01 T02791131  RH  006%=      5-min Rain = 0
KST1 101950Z 28011G16KT 28/M13 A298 RMK A01 T02821130  RH  006%=      5-min Rain = 0
KST1 101955Z 27013G18KT 29/M13 A298 RMK A01 T02881130  RH  006%=      5-min Rain = 0
KST1 102000Z 27013G19KT 28/M13 A298 RMK A01 T02841133  RH  006%=      5-min Rain = 0
KST1 102005Z 26014G20KT 29/M13 A2979 RMK A01 T02851130  RH  006%=      5-min Rain = 0
KST1 102010Z 28015G21KT 29/M13 A2979 RMK A01 T02851131  RH  006%=      5-min Rain = 0
KST1 102015Z 28012G19KT 29/M13 A2979 RMK A01 T02851131  RH  006%=      5-min Rain = 0
KST1 102020Z 27014KT 29/M13 A2979 RMK A01 T02911127  RH  006%=      5-min Rain = 0
KST1 102025Z 27013G18KT 29/M13 A2979 RMK A01 T02901131  RH  006%=      5-min Rain = 0
KST1 102030Z 25012G20KT 28/M13 A2979 RMK A01 T02841132  RH  006%=      5-min Rain = 0
KST1 102035Z 27014G20KT 29/M13 A2979 RMK A01 T02861130  RH  006%=      5-min Rain = 0
KST1 102040Z 29011G16KT 29/M13 A2979 RMK A01 T02881129  RH  006%=      5-min Rain = 0
KST1 102045Z 28013G19KT 29/M13 A2979 RMK A01 T02891131  RH  006%=      5-min Rain = 0
KST1 102050Z 27012G19KT 29/M13 A2979 RMK A01 T02931128  RH  006%=      5-min Rain = 0
KST1 102055Z 25013G19KT 29/M13 A2979 RMK A01 T02871130  RH  006%=      5-min Rain = 0
KST1 102100Z 26013G18KT 29/M13 A2979 RMK A01 T02901129  RH  006%=      5-min Rain = 0
KST1 102105Z 27010G18KT 29/M13 A2978 RMK A01 T02881129  RH  006%=      5-min Rain = 0
KST1 102110Z 29011KT 29/M13 A2978 RMK A01 T02891130  RH  006%=      5-min Rain = 0
KST1 102115Z 28012G18KT 29/M13 A2978 RMK A01 T02911127  RH  006%=      5-min Rain = 0
KST1 102120Z 26013G19KT 29/M13 A2978 RMK A01 T02901128  RH  006%=      5-min Rain = 0
KST1 102125Z 25011G16KT 29/M13 A2978 RMK A01 T02891127  RH  006%=      5-min Rain = 0
KST1 102130Z 26015KT 29/M13 A2978 RMK A01 T02941125  RH  006%=      5-min Rain = 0
KST1 102135Z 25012KT 29/M13 A2978 RMK A01 T02891128  RH  006%=      5-min Rain = 0
KST1 102140Z 26013G29KT 29/M13 A2977 RMK A01 T02911127  RH  006%=      5-min Rain = 0
KST1 102145Z 26013G19KT 29/M13 A2977 RMK A01 T02931129  RH  006%=      5-min Rain = 0
KST1 102150Z 27013G21KT 29/M13 A2977 RMK A01 T02931130  RH  006%=      5-min Rain = 0
KST1 102155Z 25012G18KT 29/M13 A2977 RMK A01 T02941130  RH  006%=      5-min Rain = 0
KST1 102200Z 28015G21KT 29/M13 A2977 RMK A01 T02931131  RH  006%=      5-min Rain = 0
KST1 102205Z 29012G20KT 29/M13 A2976 RMK A01 T02911130  RH  006%=      5-min Rain = 0
KST1 102210Z 27017G23KT 29/M13 A2976 RMK A01 T02901134  RH  006%=      5-min Rain = 0
KST1 102215Z 27013G19KT 29/M13 A2976 RMK A01 T02891134  RH  006%=      5-min Rain = 0
KST1 102220Z 27012G20KT 29/M14 A2976 RMK A01 T02851136  RH  006%=      5-min Rain = 0
KST1 102225Z 28016G21KT 29/M14 A2976 RMK A01 T02851136  RH  006%=      5-min Rain = 0
KST1 102230Z 28015KT 28/M14 A2976 RMK A01 T02801137  RH  006%=      5-min Rain = 0
KST1 102235Z 29012KT 28/M14 A2976 RMK A01 T02781137  RH  006%=      5-min Rain = 0
KST1 102240Z 28009KT 28/M14 A2976 RMK A01 T02771138  RH  006%=      5-min Rain = 0
KST1 102245Z 27009G15KT 28/M14 A2977 RMK A01 T02771137  RH  006%=      5-min Rain = 0
KST1 102250Z 28014KT 28/M14 A2976 RMK A01 T02761138  RH  006%=      5-min Rain = 0
KST1 102255Z 27012KT 28/M14 A2976 RMK A01 T02761136  RH  006%=      5-min Rain = 0
KST1 102300Z 26011KT 28/M14 A2977 RMK A01 T02761136  RH  006%=      5-min Rain = 0
KST1 102305Z 27011KT 28/M14 A2977 RMK A01 T02761135  RH  006%=      5-min Rain = 0
KST1 102310Z 26013KT 28/M14 A2977 RMK A01 T02761138  RH  006%=      5-min Rain = 0
KST1 102315Z 27013KT 28/M14 A2977 RMK A01 T02761137  RH  006%=      5-min Rain = 0
KST1 102320Z 27012KT 27/M14 A2977 RMK A01 T02741136  RH  006%=      5-min Rain = 0
KST1 102325Z 27012KT 27/M14 A2977 RMK A01 T02731137  RH  006%=      5-min Rain = 0
KST1 102330Z 27012KT 27/M14 A2977 RMK A01 T02731135  RH  006%=      5-min Rain = 0
KST1 102335Z 27012KT 27/M14 A2977 RMK A01 T02711135  RH  006%=      5-min Rain = 0
KST1 102340Z 27011KT 27/M13 A2978 RMK A01 T02701134  RH  006%=      5-min Rain = 0
KST1 102345Z 27011KT 27/M13 A2978 RMK A01 T02691131  RH  006%=      5-min Rain = 0
KST1 102350Z 27010KT 27/M13 A2978 RMK A01 T02681128  RH  007%=      5-min Rain = 0
KST1 102355Z 26010KT 27/M13 A2978 RMK A01 T02671127  RH  007%=      5-min Rain = 0
KST1 110000Z 26010KT 27/M13 A2978 RMK A01 T02661126  RH  007%=      5-min Rain = 0
KST1 110005Z 25010KT 26/M12 A2978 RMK A01 T02631120  RH  007%=      5-min Rain = 0
KST1 110010Z 26009KT 26/M12 A2978 RMK A01 T02611119  RH  007%=      5-min Rain = 0
KST1 110015Z 26011KT 26/M12 A2978 RMK A01 T02591116  RH  008%=      5-min Rain = 0
KST1 110020Z 26013KT 26/M11 A2979 RMK A01 T02581112  RH  008%=      5-min Rain = 0
KST1 110025Z 25012KT 26/M11 A2979 RMK A01 T02571110  RH  008%=      5-min Rain = 0
KST1 110030Z 25012KT 26/M11 A2979 RMK A01 T02571107  RH  008%=      5-min Rain = 0
KST1 110035Z 25012KT 26/M11 A2979 RMK A01 T02551105  RH  009%=      5-min Rain = 0
KST1 110040Z 26010KT 25/M10 A2979 RMK A01 T02521104  RH  009%=      5-min Rain = 0
KST1 110045Z 26010KT 25/M10 A298 RMK A01 T02501103  RH  009%=      5-min Rain = 0
KST1 110050Z 26010KT 25/M10 A298 RMK A01 T02481103  RH  009%=      5-min Rain = 0
KST1 110055Z 26009KT 25/M10 A298 RMK A01 T02471103  RH  009%=      5-min Rain = 0
KST1 110100Z 26009KT 24/M10 A298 RMK A01 T02441102  RH  009%=      5-min Rain = 0
KST1 110105Z 26009KT 24/M10 A298 RMK A01 T02421100  RH  010%=      5-min Rain = 0
KST1 110110Z 26008KT 24/M10 A298 RMK A01 T02391100  RH  010%=      5-min Rain = 0
KST1 110115Z 26008KT 24/M10 A298 RMK A01 T02371099  RH  010%=      5-min Rain = 0
KST1 110120Z 26008KT 24/M10 A298 RMK A01 T02371098  RH  010%=      5-min Rain = 0
KST1 110125Z 26008KT 24/M10 A298 RMK A01 T02371096  RH  010%=      5-min Rain = 0
KST1 110130Z 26008KT 24/M10 A298 RMK A01 T02351095  RH  010%=      5-min Rain = 0
KST1 110135Z 26008KT 23/M09 A298 RMK A01 T02331094  RH  011%=      5-min Rain = 0
KST1 110140Z 26007KT 23/M09 A298 RMK A01 T02301093  RH  011%=      5-min Rain = 0
KST1 110145Z 26007KT 23/M09 A298 RMK A01 T02281092  RH  011%=      5-min Rain = 0
KST1 110150Z 26007KT 23/M09 A2981 RMK A01 T02261091  RH  011%=      5-min Rain = 0
KST1 110155Z 26007KT 22/M09 A2981 RMK A01 T02241090  RH  012%=      5-min Rain = 0
KST1 110200Z 26007KT 22/M09 A2981 RMK A01 T02211089  RH  012%=      5-min Rain = 0
KST1 110205Z 26007KT 22/M09 A2981 RMK A01 T02201088  RH  012%=      5-min Rain = 0
KST1 110210Z 26008KT 22/M09 A2982 RMK A01 T02191087  RH  012%=      5-min Rain = 0
KST1 110215Z 26008KT 22/M09 A2982 RMK A01 T02191085  RH  012%=      5-min Rain = 0
KST1 110220Z 26008KT 22/M09 A2983 RMK A01 T02181085  RH  013%=      5-min Rain = 0
KST1 110225Z 25007KT 22/M08 A2983 RMK A01 T02171084  RH  013%=      5-min Rain = 0
KST1 110230Z 26007KT 21/M08 A2983 RMK A01 T02141082  RH  013%=      5-min Rain = 0
KST1 110235Z 26007KT 22/M08 A2983 RMK A01 T02151080  RH  013%=      5-min Rain = 0
KST1 110240Z 26007KT 22/M08 A2984 RMK A01 T02151081  RH  013%=      5-min Rain = 0
KST1 110245Z 26007KT 22/M08 A2984 RMK A01 T02151080  RH  013%=      5-min Rain = 0
KST1 110250Z 25007KT 21/M08 A2984 RMK A01 T02131079  RH  013%=      5-min Rain = 0
KST1 110255Z 26007KT 21/M08 A2984 RMK A01 T02111079  RH  014%=      5-min Rain = 0
KST1 110300Z 26007KT 21/M08 A2984 RMK A01 T02091079  RH  014%=      5-min Rain = 0
KST1 110305Z 25006KT 21/M08 A2984 RMK A01 T02061078  RH  014%=      5-min Rain = 0
KST1 110310Z 25007KT 20/M08 A2984 RMK A01 T02021077  RH  015%=      5-min Rain = 0
KST1 110315Z 25008KT 20/M08 A2984 RMK A01 T02001076  RH  015%=      5-min Rain = 0
KST1 110320Z 24007KT 20/M07 A2984 RMK A01 T02011073  RH  015%=      5-min Rain = 0
KST1 110325Z 25008KT 21/M07 A2984 RMK A01 T02071072  RH  015%=      5-min Rain = 0
KST1 110330Z 24007KT 21/M07 A2984 RMK A01 T02051071  RH  015%=      5-min Rain = 0
KST1 110335Z 25008KT 20/M07 A2985 RMK A01 T02031071  RH  015%=      5-min Rain = 0
KST1 110340Z 25007KT 20/M07 A2985 RMK A01 T02041071  RH  015%=      5-min Rain = 0
KST1 110345Z 25008KT 21/M07 A2985 RMK A01 T02051070  RH  015%=      5-min Rain = 0
KST1 110350Z 25008KT 21/M07 A2985 RMK A01 T02051069  RH  015%=      5-min Rain = 0
KST1 110355Z 25008KT 21/M07 A2985 RMK A01 T02071069  RH  015%=      5-min Rain = 0
KST1 110400Z 25008KT 21/M07 A2985 RMK A01 T02111070  RH  015%=      5-min Rain = 0
KST1 110405Z 26009KT 21/M07 A2985 RMK A01 T02131072  RH  014%=      5-min Rain = 0
KST1 110410Z 27010KT 22/M07 A2985 RMK A01 T02171073  RH  014%=      5-min Rain = 0
KST1 110415Z 26011KT 22/M07 A2986 RMK A01 T02181074  RH  014%=      5-min Rain = 0
KST1 110420Z 26010KT 22/M07 A2986 RMK A01 T02161073  RH  014%=      5-min Rain = 0
KST1 110425Z 26010KT 22/M07 A2986 RMK A01 T02161074  RH  014%=      5-min Rain = 0
KST1 110430Z 25008KT 21/M07 A2986 RMK A01 T02131074  RH  014%=      5-min Rain = 0
KST1 110435Z 25009KT 21/M07 A2986 RMK A01 T02111073  RH  014%=      5-min Rain = 0
KST1 110440Z 26011KT 21/M07 A2986 RMK A01 T02141074  RH  014%=      5-min Rain = 0
KST1 110445Z 27012KT 22/M08 A2986 RMK A01 T02201076  RH  013%=      5-min Rain = 0
KST1 110450Z 28011KT 22/M08 A2986 RMK A01 T02211075  RH  013%=      5-min Rain = 0
KST1 110455Z 27010KT 22/M07 A2986 RMK A01 T02201074  RH  013%=      5-min Rain = 0
KST1 110500Z 26009KT 22/M07 A2987 RMK A01 T02151073  RH  014%=      5-min Rain = 0
KST1 110505Z 28010KT 22/M07 A2987 RMK A01 T02181073  RH  014%=      5-min Rain = 0
KST1 110510Z 28008G13KT 22/M07 A2987 RMK A01 T02191073  RH  014%=      5-min Rain = 0
KST1 110515Z 29009KT 22/M07 A2987 RMK A01 T02191072  RH  014%=      5-min Rain = 0
KST1 110520Z 28010KT 22/M07 A2987 RMK A01 T02171069  RH  014%=      5-min Rain = 0
KST1 110525Z 27011KT 22/M07 A2986 RMK A01 T02211068  RH  014%=      5-min Rain = 0
KST1 110530Z 28013KT 23/M07 A2986 RMK A01 T02321065  RH  013%=      5-min Rain = 0
KST1 110535Z 28013KT 23/M06 A2987 RMK A01 T02341060  RH  014%=      5-min Rain = 0
KST1 110540Z 28016G21KT 24/M06 A2986 RMK A01 T02381057  RH  014%=      5-min Rain = 0
KST1 110545Z 27014G19KT 25/M06 A2986 RMK A01 T02461059  RH  013%=      5-min Rain = 0
KST1 110550Z 29012KT 24/M06 A2986 RMK A01 T02401059  RH  013%=      5-min Rain = 0
KST1 110555Z 29011KT 24/M06 A2986 RMK A01 T02361060  RH  014%=      5-min Rain = 0

Page generated in 0.0231 seconds.